sensor_id;sensor_type;location;lat;lon;timestamp;P1;durP1;ratioP1;P2;durP2;ratioP2
6133;SDS011;3098;42.678;23.364;2022-08-25T00:01:07;36.30;;;11.30;;
6133;SDS011;3098;42.678;23.364;2022-08-25T00:03:37;30.27;;;11.13;;
6133;SDS011;3098;42.678;23.364;2022-08-25T00:06:04;29.83;;;12.23;;
6133;SDS011;3098;42.678;23.364;2022-08-25T00:08:32;26.15;;;11.95;;
6133;SDS011;3098;42.678;23.364;2022-08-25T00:11:02;37.40;;;11.32;;
6133;SDS011;3098;42.678;23.364;2022-08-25T00:13:30;27.08;;;12.48;;
6133;SDS011;3098;42.678;23.364;2022-08-25T00:15:58;24.98;;;11.27;;
6133;SDS011;3098;42.678;23.364;2022-08-25T00:18:26;35.33;;;12.15;;
6133;SDS011;3098;42.678;23.364;2022-08-25T00:20:55;36.63;;;11.77;;
6133;SDS011;3098;42.678;23.364;2022-08-25T00:23:22;29.70;;;12.43;;
6133;SDS011;3098;42.678;23.364;2022-08-25T00:25:50;33.83;;;12.13;;
6133;SDS011;3098;42.678;23.364;2022-08-25T00:28:19;25.83;;;11.18;;
6133;SDS011;3098;42.678;23.364;2022-08-25T00:30:47;22.08;;;10.98;;
6133;SDS011;3098;42.678;23.364;2022-08-25T00:33:16;34.33;;;11.80;;
6133;SDS011;3098;42.678;23.364;2022-08-25T00:35:43;32.13;;;11.55;;
6133;SDS011;3098;42.678;23.364;2022-08-25T00:38:14;30.38;;;11.68;;
6133;SDS011;3098;42.678;23.364;2022-08-25T00:40:49;36.00;;;12.57;;
6133;SDS011;3098;42.678;23.364;2022-08-25T00:43:43;25.70;;;11.45;;
6133;SDS011;3098;42.678;23.364;2022-08-25T00:46:15;24.38;;;11.27;;
6133;SDS011;3098;42.678;23.364;2022-08-25T00:48:46;32.78;;;11.57;;
6133;SDS011;3098;42.678;23.364;2022-08-25T00:51:31;32.88;;;11.02;;
6133;SDS011;3098;42.678;23.364;2022-08-25T00:54:09;40.55;;;12.32;;
6133;SDS011;3098;42.678;23.364;2022-08-25T00:56:43;33.13;;;12.02;;
6133;SDS011;3098;42.678;23.364;2022-08-25T00:59:12;24.85;;;10.55;;
6133;SDS011;3098;42.678;23.364;2022-08-25T01:01:40;28.10;;;11.93;;
6133;SDS011;3098;42.678;23.364;2022-08-25T01:04:08;28.98;;;12.57;;
6133;SDS011;3098;42.678;23.364;2022-08-25T01:06:35;37.90;;;12.00;;
6133;SDS011;3098;42.678;23.364;2022-08-25T01:09:04;32.00;;;11.98;;
6133;SDS011;3098;42.678;23.364;2022-08-25T01:11:34;33.10;;;12.27;;
6133;SDS011;3098;42.678;23.364;2022-08-25T01:14:02;36.80;;;13.57;;
6133;SDS011;3098;42.678;23.364;2022-08-25T01:16:31;30.60;;;13.57;;
6133;SDS011;3098;42.678;23.364;2022-08-25T01:18:59;36.50;;;11.75;;
6133;SDS011;3098;42.678;23.364;2022-08-25T01:21:29;29.90;;;11.43;;
6133;SDS011;3098;42.678;23.364;2022-08-25T01:23:57;25.00;;;12.32;;
6133;SDS011;3098;42.678;23.364;2022-08-25T01:26:27;35.40;;;14.20;;
6133;SDS011;3098;42.678;23.364;2022-08-25T01:28:56;22.70;;;11.00;;
6133;SDS011;3098;42.678;23.364;2022-08-25T01:31:41;27.83;;;12.73;;
6133;SDS011;3098;42.678;23.364;2022-08-25T01:34:10;30.15;;;11.68;;
6133;SDS011;3098;42.678;23.364;2022-08-25T01:36:40;31.05;;;12.00;;
6133;SDS011;3098;42.678;23.364;2022-08-25T01:39:09;27.70;;;12.32;;
6133;SDS011;3098;42.678;23.364;2022-08-25T01:41:40;35.75;;;12.10;;
6133;SDS011;3098;42.678;23.364;2022-08-25T01:44:15;34.80;;;13.02;;
6133;SDS011;3098;42.678;23.364;2022-08-25T01:46:42;29.27;;;12.50;;
6133;SDS011;3098;42.678;23.364;2022-08-25T01:49:10;31.17;;;13.68;;
6133;SDS011;3098;42.678;23.364;2022-08-25T01:51:38;30.67;;;13.15;;
6133;SDS011;3098;42.678;23.364;2022-08-25T01:54:09;31.30;;;15.23;;
6133;SDS011;3098;42.678;23.364;2022-08-25T01:56:43;31.00;;;14.68;;
6133;SDS011;3098;42.678;23.364;2022-08-25T01:59:10;30.95;;;13.82;;
6133;SDS011;3098;42.678;23.364;2022-08-25T02:01:40;27.70;;;12.65;;
6133;SDS011;3098;42.678;23.364;2022-08-25T02:04:08;34.95;;;11.95;;
6133;SDS011;3098;42.678;23.364;2022-08-25T02:06:36;34.92;;;12.15;;
6133;SDS011;3098;42.678;23.364;2022-08-25T02:09:08;35.30;;;11.63;;
6133;SDS011;3098;42.678;23.364;2022-08-25T02:11:39;29.50;;;11.27;;
6133;SDS011;3098;42.678;23.364;2022-08-25T02:14:07;33.92;;;11.30;;
6133;SDS011;3098;42.678;23.364;2022-08-25T02:16:37;28.02;;;11.48;;
6133;SDS011;3098;42.678;23.364;2022-08-25T02:19:05;27.67;;;12.13;;
6133;SDS011;3098;42.678;23.364;2022-08-25T02:21:37;29.90;;;11.38;;
6133;SDS011;3098;42.678;23.364;2022-08-25T02:24:05;27.38;;;11.95;;
6133;SDS011;3098;42.678;23.364;2022-08-25T02:26:34;27.50;;;12.25;;
6133;SDS011;3098;42.678;23.364;2022-08-25T02:29:02;28.00;;;10.52;;
6133;SDS011;3098;42.678;23.364;2022-08-25T02:31:32;29.95;;;11.48;;
6133;SDS011;3098;42.678;23.364;2022-08-25T02:34:00;27.90;;;11.40;;
6133;SDS011;3098;42.678;23.364;2022-08-25T02:36:27;40.67;;;11.75;;
6133;SDS011;3098;42.678;23.364;2022-08-25T02:38:56;37.67;;;11.50;;
6133;SDS011;3098;42.678;23.364;2022-08-25T02:41:25;22.23;;;11.05;;
6133;SDS011;3098;42.678;23.364;2022-08-25T02:43:52;30.20;;;11.82;;
6133;SDS011;3098;42.678;23.364;2022-08-25T02:46:20;18.17;;;10.32;;
6133;SDS011;3098;42.678;23.364;2022-08-25T02:48:49;27.17;;;11.38;;
6133;SDS011;3098;42.678;23.364;2022-08-25T02:51:17;30.08;;;10.77;;
6133;SDS011;3098;42.678;23.364;2022-08-25T02:53:45;25.88;;;10.10;;
6133;SDS011;3098;42.678;23.364;2022-08-25T02:56:12;34.58;;;11.38;;
6133;SDS011;3098;42.678;23.364;2022-08-25T02:58:43;19.63;;;9.45;;
6133;SDS011;3098;42.678;23.364;2022-08-25T03:01:11;31.30;;;11.00;;
6133;SDS011;3098;42.678;23.364;2022-08-25T03:03:40;35.40;;;11.60;;
6133;SDS011;3098;42.678;23.364;2022-08-25T03:06:09;28.08;;;10.18;;
6133;SDS011;3098;42.678;23.364;2022-08-25T03:08:38;29.35;;;10.07;;
6133;SDS011;3098;42.678;23.364;2022-08-25T03:11:06;19.58;;;10.32;;
6133;SDS011;3098;42.678;23.364;2022-08-25T03:13:33;18.67;;;9.88;;
6133;SDS011;3098;42.678;23.364;2022-08-25T03:16:04;21.55;;;9.25;;
6133;SDS011;3098;42.678;23.364;2022-08-25T03:18:32;30.75;;;10.95;;
6133;SDS011;3098;42.678;23.364;2022-08-25T03:21:00;32.83;;;10.80;;
6133;SDS011;3098;42.678;23.364;2022-08-25T03:23:28;25.63;;;10.57;;
6133;SDS011;3098;42.678;23.364;2022-08-25T03:25:55;26.88;;;10.45;;
6133;SDS011;3098;42.678;23.364;2022-08-25T03:28:40;27.55;;;10.35;;
6133;SDS011;3098;42.678;23.364;2022-08-25T03:31:09;17.60;;;10.07;;
6133;SDS011;3098;42.678;23.364;2022-08-25T03:33:36;27.25;;;9.75;;
6133;SDS011;3098;42.678;23.364;2022-08-25T03:36:04;37.08;;;10.63;;
6133;SDS011;3098;42.678;23.364;2022-08-25T03:38:33;26.48;;;9.85;;
6133;SDS011;3098;42.678;23.364;2022-08-25T03:41:01;28.83;;;10.75;;
6133;SDS011;3098;42.678;23.364;2022-08-25T03:43:28;35.20;;;11.63;;
6133;SDS011;3098;42.678;23.364;2022-08-25T03:45:55;20.27;;;10.40;;
6133;SDS011;3098;42.678;23.364;2022-08-25T03:48:24;29.95;;;11.45;;
6133;SDS011;3098;42.678;23.364;2022-08-25T03:50:51;33.28;;;10.80;;
6133;SDS011;3098;42.678;23.364;2022-08-25T03:53:19;25.00;;;11.70;;
6133;SDS011;3098;42.678;23.364;2022-08-25T03:55:46;32.63;;;10.23;;
6133;SDS011;3098;42.678;23.364;2022-08-25T03:58:13;25.98;;;10.90;;
6133;SDS011;3098;42.678;23.364;2022-08-25T04:00:41;29.63;;;10.60;;
6133;SDS011;3098;42.678;23.364;2022-08-25T04:03:08;34.85;;;10.27;;
6133;SDS011;3098;42.678;23.364;2022-08-25T04:05:37;28.48;;;10.15;;
6133;SDS011;3098;42.678;23.364;2022-08-25T04:08:04;28.55;;;11.05;;
6133;SDS011;3098;42.678;23.364;2022-08-25T04:10:32;35.67;;;11.45;;
6133;SDS011;3098;42.678;23.364;2022-08-25T04:12:59;29.55;;;11.52;;
6133;SDS011;3098;42.678;23.364;2022-08-25T04:15:26;24.02;;;10.60;;
6133;SDS011;3098;42.678;23.364;2022-08-25T04:17:54;30.10;;;10.98;;
6133;SDS011;3098;42.678;23.364;2022-08-25T04:20:22;23.27;;;12.38;;
6133;SDS011;3098;42.678;23.364;2022-08-25T04:22:51;38.97;;;17.85;;
6133;SDS011;3098;42.678;23.364;2022-08-25T04:25:19;47.22;;;19.63;;
6133;SDS011;3098;42.678;23.364;2022-08-25T04:27:46;36.60;;;17.20;;
6133;SDS011;3098;42.678;23.364;2022-08-25T04:30:13;40.25;;;16.73;;
6133;SDS011;3098;42.678;23.364;2022-08-25T04:32:41;46.88;;;19.60;;
6133;SDS011;3098;42.678;23.364;2022-08-25T04:35:08;44.28;;;18.80;;
6133;SDS011;3098;42.678;23.364;2022-08-25T04:37:36;39.15;;;16.20;;
6133;SDS011;3098;42.678;23.364;2022-08-25T04:40:05;42.35;;;18.30;;
6133;SDS011;3098;42.678;23.364;2022-08-25T04:42:32;39.28;;;16.95;;
6133;SDS011;3098;42.678;23.364;2022-08-25T04:45:00;38.63;;;16.85;;
6133;SDS011;3098;42.678;23.364;2022-08-25T04:47:28;33.92;;;16.48;;
6133;SDS011;3098;42.678;23.364;2022-08-25T04:49:55;32.83;;;16.15;;
6133;SDS011;3098;42.678;23.364;2022-08-25T04:52:22;29.85;;;15.50;;
6133;SDS011;3098;42.678;23.364;2022-08-25T04:54:49;29.50;;;13.50;;
6133;SDS011;3098;42.678;23.364;2022-08-25T04:57:17;49.40;;;15.52;;
6133;SDS011;3098;42.678;23.364;2022-08-25T04:59:45;30.95;;;13.30;;
6133;SDS011;3098;42.678;23.364;2022-08-25T05:02:12;26.88;;;13.55;;
6133;SDS011;3098;42.678;23.364;2022-08-25T05:04:39;25.05;;;12.55;;
6133;SDS011;3098;42.678;23.364;2022-08-25T05:07:06;26.50;;;13.27;;
6133;SDS011;3098;42.678;23.364;2022-08-25T05:09:34;38.20;;;12.95;;
6133;SDS011;3098;42.678;23.364;2022-08-25T05:12:02;27.85;;;12.00;;
6133;SDS011;3098;42.678;23.364;2022-08-25T05:14:32;24.92;;;12.00;;
6133;SDS011;3098;42.678;23.364;2022-08-25T05:16:59;29.52;;;11.57;;
6133;SDS011;3098;42.678;23.364;2022-08-25T05:19:27;28.40;;;11.68;;
6133;SDS011;3098;42.678;23.364;2022-08-25T05:21:54;33.72;;;11.77;;
6133;SDS011;3098;42.678;23.364;2022-08-25T05:24:22;29.10;;;13.07;;
6133;SDS011;3098;42.678;23.364;2022-08-25T05:26:49;26.40;;;11.18;;
6133;SDS011;3098;42.678;23.364;2022-08-25T05:29:17;25.35;;;11.88;;
6133;SDS011;3098;42.678;23.364;2022-08-25T05:31:47;30.63;;;12.02;;
6133;SDS011;3098;42.678;23.364;2022-08-25T05:34:14;23.10;;;11.00;;
6133;SDS011;3098;42.678;23.364;2022-08-25T05:36:42;28.75;;;11.93;;
6133;SDS011;3098;42.678;23.364;2022-08-25T05:39:09;34.10;;;13.20;;
6133;SDS011;3098;42.678;23.364;2022-08-25T05:41:37;23.85;;;10.95;;
6133;SDS011;3098;42.678;23.364;2022-08-25T05:44:04;23.98;;;11.48;;
6133;SDS011;3098;42.678;23.364;2022-08-25T05:46:33;21.33;;;10.73;;
6133;SDS011;3098;42.678;23.364;2022-08-25T05:49:01;30.38;;;11.05;;
6133;SDS011;3098;42.678;23.364;2022-08-25T05:51:29;18.42;;;10.40;;
6133;SDS011;3098;42.678;23.364;2022-08-25T05:53:56;27.40;;;10.43;;
6133;SDS011;3098;42.678;23.364;2022-08-25T05:56:23;21.55;;;11.02;;
6133;SDS011;3098;42.678;23.364;2022-08-25T05:58:50;21.95;;;9.55;;
6133;SDS011;3098;42.678;23.364;2022-08-25T06:01:19;33.22;;;10.35;;
6133;SDS011;3098;42.678;23.364;2022-08-25T06:04:08;33.97;;;10.40;;
6133;SDS011;3098;42.678;23.364;2022-08-25T06:06:36;25.02;;;10.02;;
6133;SDS011;3098;42.678;23.364;2022-08-25T06:09:04;24.55;;;10.32;;
6133;SDS011;3098;42.678;23.364;2022-08-25T06:11:33;33.47;;;9.65;;
6133;SDS011;3098;42.678;23.364;2022-08-25T06:14:01;24.20;;;9.95;;
6133;SDS011;3098;42.678;23.364;2022-08-25T06:16:29;24.17;;;10.52;;
6133;SDS011;3098;42.678;23.364;2022-08-25T06:19:00;36.17;;;10.18;;
6133;SDS011;3098;42.678;23.364;2022-08-25T06:21:28;31.75;;;10.93;;
6133;SDS011;3098;42.678;23.364;2022-08-25T06:23:55;32.00;;;10.70;;
6133;SDS011;3098;42.678;23.364;2022-08-25T06:26:23;21.50;;;9.45;;
6133;SDS011;3098;42.678;23.364;2022-08-25T06:28:50;25.25;;;9.02;;
6133;SDS011;3098;42.678;23.364;2022-08-25T06:31:18;23.80;;;9.15;;
6133;SDS011;3098;42.678;23.364;2022-08-25T06:33:47;26.35;;;8.70;;
6133;SDS011;3098;42.678;23.364;2022-08-25T06:36:15;25.15;;;8.93;;
6133;SDS011;3098;42.678;23.364;2022-08-25T06:38:46;18.90;;;8.45;;
6133;SDS011;3098;42.678;23.364;2022-08-25T06:41:13;19.25;;;8.98;;
6133;SDS011;3098;42.678;23.364;2022-08-25T06:43:41;35.28;;;9.25;;
6133;SDS011;3098;42.678;23.364;2022-08-25T06:46:09;32.67;;;8.80;;
6133;SDS011;3098;42.678;23.364;2022-08-25T06:48:37;30.63;;;9.63;;
6133;SDS011;3098;42.678;23.364;2022-08-25T06:51:06;23.08;;;8.88;;
6133;SDS011;3098;42.678;23.364;2022-08-25T06:53:35;20.10;;;9.48;;
6133;SDS011;3098;42.678;23.364;2022-08-25T06:56:04;16.77;;;8.13;;
6133;SDS011;3098;42.678;23.364;2022-08-25T06:58:31;19.25;;;10.38;;
6133;SDS011;3098;42.678;23.364;2022-08-25T07:01:05;24.35;;;9.98;;
6133;SDS011;3098;42.678;23.364;2022-08-25T07:03:33;21.02;;;9.63;;
6133;SDS011;3098;42.678;23.364;2022-08-25T07:06:01;25.30;;;9.15;;
6133;SDS011;3098;42.678;23.364;2022-08-25T07:08:28;25.77;;;9.98;;
6133;SDS011;3098;42.678;23.364;2022-08-25T07:10:55;26.33;;;8.88;;
6133;SDS011;3098;42.678;23.364;2022-08-25T07:13:24;26.30;;;9.23;;
6133;SDS011;3098;42.678;23.364;2022-08-25T07:15:52;24.45;;;9.80;;
6133;SDS011;3098;42.678;23.364;2022-08-25T07:18:20;25.48;;;9.55;;
6133;SDS011;3098;42.678;23.364;2022-08-25T07:20:47;29.85;;;10.52;;
6133;SDS011;3098;42.678;23.364;2022-08-25T07:23:16;24.75;;;9.98;;
6133;SDS011;3098;42.678;23.364;2022-08-25T07:25:43;24.08;;;9.93;;
6133;SDS011;3098;42.678;23.364;2022-08-25T07:28:10;29.02;;;11.77;;
6133;SDS011;3098;42.678;23.364;2022-08-25T07:30:40;28.45;;;9.13;;
6133;SDS011;3098;42.678;23.364;2022-08-25T07:33:07;25.13;;;9.65;;
6133;SDS011;3098;42.678;23.364;2022-08-25T07:35:35;25.67;;;9.05;;
6133;SDS011;3098;42.678;23.364;2022-08-25T07:38:01;25.83;;;9.02;;
6133;SDS011;3098;42.678;23.364;2022-08-25T07:40:33;22.95;;;8.13;;
6133;SDS011;3098;42.678;23.364;2022-08-25T07:43:02;35.42;;;9.60;;
6133;SDS011;3098;42.678;23.364;2022-08-25T07:45:32;24.65;;;8.85;;
6133;SDS011;3098;42.678;23.364;2022-08-25T07:48:03;28.40;;;9.40;;
6133;SDS011;3098;42.678;23.364;2022-08-25T07:50:32;31.17;;;9.45;;
6133;SDS011;3098;42.678;23.364;2022-08-25T07:52:59;24.23;;;8.80;;
6133;SDS011;3098;42.678;23.364;2022-08-25T07:55:27;25.13;;;8.48;;
6133;SDS011;3098;42.678;23.364;2022-08-25T07:57:55;23.17;;;8.63;;
6133;SDS011;3098;42.678;23.364;2022-08-25T08:00:24;30.42;;;8.38;;
6133;SDS011;3098;42.678;23.364;2022-08-25T08:02:54;24.33;;;8.48;;
6133;SDS011;3098;42.678;23.364;2022-08-25T08:05:22;22.55;;;8.73;;
6133;SDS011;3098;42.678;23.364;2022-08-25T08:07:50;28.83;;;8.55;;
6133;SDS011;3098;42.678;23.364;2022-08-25T08:10:18;24.65;;;8.32;;
6133;SDS011;3098;42.678;23.364;2022-08-25T08:12:49;35.70;;;9.02;;
6133;SDS011;3098;42.678;23.364;2022-08-25T08:15:18;28.90;;;7.88;;
6133;SDS011;3098;42.678;23.364;2022-08-25T08:17:46;32.67;;;8.13;;
6133;SDS011;3098;42.678;23.364;2022-08-25T08:20:13;27.02;;;7.70;;
6133;SDS011;3098;42.678;23.364;2022-08-25T08:22:42;21.83;;;7.32;;
6133;SDS011;3098;42.678;23.364;2022-08-25T08:25:09;30.40;;;8.13;;
6133;SDS011;3098;42.678;23.364;2022-08-25T08:27:38;27.90;;;7.93;;
6133;SDS011;3098;42.678;23.364;2022-08-25T08:30:07;29.88;;;8.00;;
6133;SDS011;3098;42.678;23.364;2022-08-25T08:32:35;22.90;;;7.75;;
6133;SDS011;3098;42.678;23.364;2022-08-25T08:35:02;28.95;;;8.23;;
6133;SDS011;3098;42.678;23.364;2022-08-25T08:37:31;26.65;;;8.10;;
6133;SDS011;3098;42.678;23.364;2022-08-25T08:40:00;35.25;;;8.07;;
6133;SDS011;3098;42.678;23.364;2022-08-25T08:42:33;38.67;;;8.23;;
6133;SDS011;3098;42.678;23.364;2022-08-25T08:45:15;33.28;;;7.20;;
6133;SDS011;3098;42.678;23.364;2022-08-25T08:47:50;33.33;;;7.40;;
6133;SDS011;3098;42.678;23.364;2022-08-25T08:50:28;36.85;;;7.28;;
6133;SDS011;3098;42.678;23.364;2022-08-25T08:53:00;24.98;;;6.40;;
6133;SDS011;3098;42.678;23.364;2022-08-25T08:55:34;44.78;;;7.75;;
6133;SDS011;3098;42.678;23.364;2022-08-25T08:58:05;34.17;;;6.45;;
6133;SDS011;3098;42.678;23.364;2022-08-25T09:00:36;34.53;;;6.88;;
6133;SDS011;3098;42.678;23.364;2022-08-25T09:03:10;32.35;;;6.85;;
6133;SDS011;3098;42.678;23.364;2022-08-25T09:05:43;34.13;;;7.05;;
6133;SDS011;3098;42.678;23.364;2022-08-25T09:08:13;26.05;;;6.47;;
6133;SDS011;3098;42.678;23.364;2022-08-25T09:10:48;37.60;;;6.10;;
6133;SDS011;3098;42.678;23.364;2022-08-25T09:13:23;29.27;;;6.60;;
6133;SDS011;3098;42.678;23.364;2022-08-25T09:16:06;25.85;;;5.95;;
6133;SDS011;3098;42.678;23.364;2022-08-25T09:19:13;28.45;;;5.55;;
6133;SDS011;3098;42.678;23.364;2022-08-25T09:21:56;34.50;;;5.70;;
6133;SDS011;3098;42.678;23.364;2022-08-25T09:24:36;26.42;;;6.18;;
6133;SDS011;3098;42.678;23.364;2022-08-25T09:27:16;45.67;;;6.60;;
6133;SDS011;3098;42.678;23.364;2022-08-25T09:29:57;27.90;;;6.43;;
6133;SDS011;3098;42.678;23.364;2022-08-25T09:32:27;22.25;;;6.20;;
6133;SDS011;3098;42.678;23.364;2022-08-25T09:34:58;34.15;;;6.28;;
6133;SDS011;3098;42.678;23.364;2022-08-25T09:37:28;22.35;;;6.18;;
6133;SDS011;3098;42.678;23.364;2022-08-25T09:39:55;36.30;;;7.30;;
6133;SDS011;3098;42.678;23.364;2022-08-25T09:42:23;29.35;;;7.18;;
6133;SDS011;3098;42.678;23.364;2022-08-25T09:45:12;35.35;;;6.22;;
6133;SDS011;3098;42.678;23.364;2022-08-25T09:47:41;23.63;;;5.55;;
6133;SDS011;3098;42.678;23.364;2022-08-25T09:50:13;31.67;;;4.97;;
6133;SDS011;3098;42.678;23.364;2022-08-25T09:52:43;22.90;;;5.25;;
6133;SDS011;3098;42.678;23.364;2022-08-25T09:55:22;35.97;;;5.78;;
6133;SDS011;3098;42.678;23.364;2022-08-25T09:57:57;29.88;;;5.80;;
6133;SDS011;3098;42.678;23.364;2022-08-25T10:00:25;25.15;;;4.70;;
6133;SDS011;3098;42.678;23.364;2022-08-25T10:03:05;22.13;;;5.40;;
6133;SDS011;3098;42.678;23.364;2022-08-25T10:05:37;24.50;;;6.15;;
6133;SDS011;3098;42.678;23.364;2022-08-25T10:08:26;31.23;;;5.30;;
6133;SDS011;3098;42.678;23.364;2022-08-25T10:10:59;25.42;;;5.25;;
6133;SDS011;3098;42.678;23.364;2022-08-25T10:13:35;25.88;;;5.13;;
6133;SDS011;3098;42.678;23.364;2022-08-25T10:16:06;20.38;;;5.45;;
6133;SDS011;3098;42.678;23.364;2022-08-25T10:18:36;24.75;;;6.38;;
6133;SDS011;3098;42.678;23.364;2022-08-25T10:21:09;47.15;;;6.03;;
6133;SDS011;3098;42.678;23.364;2022-08-25T10:23:39;32.90;;;5.90;;
6133;SDS011;3098;42.678;23.364;2022-08-25T10:26:12;25.92;;;5.75;;
6133;SDS011;3098;42.678;23.364;2022-08-25T10:28:56;34.97;;;5.32;;
6133;SDS011;3098;42.678;23.364;2022-08-25T10:31:36;15.27;;;4.15;;
6133;SDS011;3098;42.678;23.364;2022-08-25T10:34:30;29.90;;;5.00;;
6133;SDS011;3098;42.678;23.364;2022-08-25T10:37:09;34.90;;;5.15;;
6133;SDS011;3098;42.678;23.364;2022-08-25T10:39:44;26.27;;;4.60;;
6133;SDS011;3098;42.678;23.364;2022-08-25T10:42:16;23.75;;;5.07;;
6133;SDS011;3098;42.678;23.364;2022-08-25T10:45:00;28.23;;;4.70;;
6133;SDS011;3098;42.678;23.364;2022-08-25T10:48:03;24.45;;;4.70;;
6133;SDS011;3098;42.678;23.364;2022-08-25T10:50:44;21.77;;;4.97;;
6133;SDS011;3098;42.678;23.364;2022-08-25T10:53:22;23.77;;;4.78;;
6133;SDS011;3098;42.678;23.364;2022-08-25T10:56:02;31.98;;;5.03;;
6133;SDS011;3098;42.678;23.364;2022-08-25T10:58:49;30.15;;;6.15;;
6133;SDS011;3098;42.678;23.364;2022-08-25T11:01:30;36.05;;;5.00;;
6133;SDS011;3098;42.678;23.364;2022-08-25T11:04:07;21.30;;;4.78;;
6133;SDS011;3098;42.678;23.364;2022-08-25T11:06:39;17.25;;;4.18;;
6133;SDS011;3098;42.678;23.364;2022-08-25T11:09:11;33.90;;;5.10;;
6133;SDS011;3098;42.678;23.364;2022-08-25T11:11:45;31.88;;;5.32;;
6133;SDS011;3098;42.678;23.364;2022-08-25T11:14:17;28.42;;;5.03;;
6133;SDS011;3098;42.678;23.364;2022-08-25T11:16:51;27.75;;;5.03;;
6133;SDS011;3098;42.678;23.364;2022-08-25T11:19:24;35.70;;;4.80;;
6133;SDS011;3098;42.678;23.364;2022-08-25T11:21:57;27.73;;;5.47;;
6133;SDS011;3098;42.678;23.364;2022-08-25T11:24:40;20.10;;;4.82;;
6133;SDS011;3098;42.678;23.364;2022-08-25T11:27:15;29.50;;;5.00;;
6133;SDS011;3098;42.678;23.364;2022-08-25T11:29:48;19.20;;;5.22;;
6133;SDS011;3098;42.678;23.364;2022-08-25T11:32:27;24.88;;;6.35;;
6133;SDS011;3098;42.678;23.364;2022-08-25T11:34:59;25.63;;;5.78;;
6133;SDS011;3098;42.678;23.364;2022-08-25T11:37:28;27.60;;;5.22;;
6133;SDS011;3098;42.678;23.364;2022-08-25T11:42:59;27.17;;;4.93;;
6133;SDS011;3098;42.678;23.364;2022-08-25T11:45:46;23.17;;;5.30;;
6133;SDS011;3098;42.678;23.364;2022-08-25T11:48:30;28.40;;;5.00;;
6133;SDS011;3098;42.678;23.364;2022-08-25T11:51:05;26.20;;;4.72;;
6133;SDS011;3098;42.678;23.364;2022-08-25T11:53:34;19.75;;;4.57;;
6133;SDS011;3098;42.678;23.364;2022-08-25T11:56:03;11.23;;;4.40;;
6133;SDS011;3098;42.678;23.364;2022-08-25T11:58:45;25.75;;;5.05;;
6133;SDS011;3098;42.678;23.364;2022-08-25T12:04:31;22.05;;;4.65;;
6133;SDS011;3098;42.678;23.364;2022-08-25T12:10:08;18.58;;;4.50;;
6133;SDS011;3098;42.678;23.364;2022-08-25T12:12:56;25.38;;;6.50;;
6133;SDS011;3098;42.678;23.364;2022-08-25T12:15:26;29.67;;;5.20;;
6133;SDS011;3098;42.678;23.364;2022-08-25T12:18:08;20.45;;;5.35;;
6133;SDS011;3098;42.678;23.364;2022-08-25T12:24:07;17.17;;;5.05;;
6133;SDS011;3098;42.678;23.364;2022-08-25T12:26:50;32.70;;;5.22;;
6133;SDS011;3098;42.678;23.364;2022-08-25T12:29:25;17.35;;;4.05;;
6133;SDS011;3098;42.678;23.364;2022-08-25T12:31:59;18.15;;;5.53;;
6133;SDS011;3098;42.678;23.364;2022-08-25T12:35:10;16.90;;;4.72;;
6133;SDS011;3098;42.678;23.364;2022-08-25T12:37:53;16.52;;;4.55;;
6133;SDS011;3098;42.678;23.364;2022-08-25T12:40:33;25.40;;;5.03;;
6133;SDS011;3098;42.678;23.364;2022-08-25T12:43:05;21.83;;;4.53;;
6133;SDS011;3098;42.678;23.364;2022-08-25T12:45:41;15.75;;;4.43;;
6133;SDS011;3098;42.678;23.364;2022-08-25T12:51:19;19.50;;;4.53;;
6133;SDS011;3098;42.678;23.364;2022-08-25T12:53:47;28.17;;;4.75;;
6133;SDS011;3098;42.678;23.364;2022-08-25T12:56:20;23.20;;;4.70;;
6133;SDS011;3098;42.678;23.364;2022-08-25T12:58:54;21.30;;;4.10;;
6133;SDS011;3098;42.678;23.364;2022-08-25T13:01:37;15.13;;;4.40;;
6133;SDS011;3098;42.678;23.364;2022-08-25T13:04:21;16.55;;;4.75;;
6133;SDS011;3098;42.678;23.364;2022-08-25T13:07:17;27.38;;;4.53;;
6133;SDS011;3098;42.678;23.364;2022-08-25T13:10:16;25.45;;;4.78;;
6133;SDS011;3098;42.678;23.364;2022-08-25T13:12:56;17.80;;;4.97;;
6133;SDS011;3098;42.678;23.364;2022-08-25T13:15:35;20.23;;;4.65;;
6133;SDS011;3098;42.678;23.364;2022-08-25T13:18:19;20.65;;;4.35;;
6133;SDS011;3098;42.678;23.364;2022-08-25T13:20:47;18.65;;;4.63;;
6133;SDS011;3098;42.678;23.364;2022-08-25T13:23:20;23.35;;;4.65;;
6133;SDS011;3098;42.678;23.364;2022-08-25T13:25:51;15.60;;;4.75;;
6133;SDS011;3098;42.678;23.364;2022-08-25T13:28:23;25.15;;;4.80;;
6133;SDS011;3098;42.678;23.364;2022-08-25T13:30:55;22.48;;;5.40;;
6133;SDS011;3098;42.678;23.364;2022-08-25T13:33:25;21.23;;;4.20;;
6133;SDS011;3098;42.678;23.364;2022-08-25T13:35:53;17.50;;;4.50;;
6133;SDS011;3098;42.678;23.364;2022-08-25T13:38:35;25.58;;;4.50;;
6133;SDS011;3098;42.678;23.364;2022-08-25T13:41:02;17.02;;;4.90;;
6133;SDS011;3098;42.678;23.364;2022-08-25T13:43:32;18.73;;;4.95;;
6133;SDS011;3098;42.678;23.364;2022-08-25T13:46:01;16.60;;;4.68;;
6133;SDS011;3098;42.678;23.364;2022-08-25T13:48:32;20.85;;;5.50;;
6133;SDS011;3098;42.678;23.364;2022-08-25T13:53:49;30.08;;;5.47;;
6133;SDS011;3098;42.678;23.364;2022-08-25T13:56:25;17.02;;;4.70;;
6133;SDS011;3098;42.678;23.364;2022-08-25T13:58:57;13.68;;;4.43;;
6133;SDS011;3098;42.678;23.364;2022-08-25T14:01:26;19.90;;;4.60;;
6133;SDS011;3098;42.678;23.364;2022-08-25T14:03:55;16.20;;;4.70;;
6133;SDS011;3098;42.678;23.364;2022-08-25T14:06:43;30.48;;;4.97;;
6133;SDS011;3098;42.678;23.364;2022-08-25T14:09:12;34.38;;;5.70;;
6133;SDS011;3098;42.678;23.364;2022-08-25T14:11:42;20.65;;;5.32;;
6133;SDS011;3098;42.678;23.364;2022-08-25T14:14:18;32.33;;;5.70;;
6133;SDS011;3098;42.678;23.364;2022-08-25T14:17:01;22.77;;;5.03;;
6133;SDS011;3098;42.678;23.364;2022-08-25T14:19:31;21.15;;;4.50;;
6133;SDS011;3098;42.678;23.364;2022-08-25T14:21:59;28.40;;;4.68;;
6133;SDS011;3098;42.678;23.364;2022-08-25T14:24:30;30.75;;;5.03;;
6133;SDS011;3098;42.678;23.364;2022-08-25T14:26:59;31.67;;;5.30;;
6133;SDS011;3098;42.678;23.364;2022-08-25T14:29:29;30.33;;;4.93;;
6133;SDS011;3098;42.678;23.364;2022-08-25T14:31:56;36.75;;;5.97;;
6133;SDS011;3098;42.678;23.364;2022-08-25T14:34:26;18.70;;;4.65;;
6133;SDS011;3098;42.678;23.364;2022-08-25T14:36:56;28.33;;;4.97;;
6133;SDS011;3098;42.678;23.364;2022-08-25T14:39:24;26.75;;;5.18;;
6133;SDS011;3098;42.678;23.364;2022-08-25T14:41:53;16.98;;;4.38;;
6133;SDS011;3098;42.678;23.364;2022-08-25T14:44:21;30.08;;;5.55;;
6133;SDS011;3098;42.678;23.364;2022-08-25T14:46:51;26.13;;;4.72;;
6133;SDS011;3098;42.678;23.364;2022-08-25T14:49:22;22.33;;;5.13;;
6133;SDS011;3098;42.678;23.364;2022-08-25T14:51:51;23.00;;;4.43;;
6133;SDS011;3098;42.678;23.364;2022-08-25T14:54:19;22.90;;;4.38;;
6133;SDS011;3098;42.678;23.364;2022-08-25T14:56:51;19.88;;;5.18;;
6133;SDS011;3098;42.678;23.364;2022-08-25T14:59:20;17.88;;;4.85;;
6133;SDS011;3098;42.678;23.364;2022-08-25T15:01:47;33.17;;;5.03;;
6133;SDS011;3098;42.678;23.364;2022-08-25T15:04:16;23.42;;;4.90;;
6133;SDS011;3098;42.678;23.364;2022-08-25T15:06:46;30.17;;;4.43;;
6133;SDS011;3098;42.678;23.364;2022-08-25T15:09:21;21.60;;;5.32;;
6133;SDS011;3098;42.678;23.364;2022-08-25T15:11:48;25.73;;;5.60;;
